Time;durP1;ratioP1;P1;durP2;ratioP2;P2;SDS_P1;SDS_P2;PMS_P1;PMS_P2;Temp;Humidity;BMP_temperature;BMP_pressure;BME280_temperature;BME280_humidity;BME280_pressure;Samples;Min_cycle;Max_cycle;Signal;HPM_P1;HPM_P2
2021/03/02 00:00:51;;;;;;;42.75;19.52;;;9.60;88.30;;;;;;5104800;28;20201;-80
2021/03/02 00:03:17;;;;;;;41.25;19.73;;;9.40;88.80;;;;;;5103905;28;20258;-80
2021/03/02 00:05:46;;;;;;;45.95;19.73;;;9.20;89.20;;;;;;5105405;28;20209;-76
2021/03/02 00:08:14;;;;;;;41.53;19.05;;;9.10;89.50;;;;;;5103666;28;20289;-79
2021/03/02 00:10:42;;;;;;;40.20;18.55;;;9.00;89.70;;;;;;5106031;28;20197;-79
2021/03/02 00:13:12;;;;;;;42.03;19.40;;;8.90;89.80;;;;;;5103513;28;20292;-79
2021/03/02 00:15:38;;;;;;;40.90;19.85;;;8.80;90.00;;;;;;5107341;28;20213;-80
2021/03/02 00:18:07;;;;;;;43.17;19.20;;;8.80;90.10;;;;;;5105794;28;20189;-79
2021/03/02 00:20:36;;;;;;;43.63;19.60;;;8.70;90.20;;;;;;5107783;28;20289;-78
2021/03/02 00:23:06;;;;;;;43.38;19.70;;;8.60;90.20;;;;;;5105514;28;20203;-78
2021/03/02 00:25:36;;;;;;;46.03;18.85;;;8.60;90.30;;;;;;5108141;28;20196;-80
2021/03/02 00:28:06;;;;;;;43.95;19.48;;;8.50;90.40;;;;;;5106914;28;20541;-80
2021/03/02 00:30:33;;;;;;;45.92;20.55;;;8.50;90.50;;;;;;5106405;28;20205;-79
2021/03/02 00:33:00;;;;;;;47.28;20.83;;;8.40;90.60;;;;;;5105153;28;20213;-78
2021/03/02 00:35:27;;;;;;;47.10;20.38;;;8.40;91.00;;;;;;5105933;28;20206;-80
2021/03/02 00:37:53;;;;;;;43.38;20.17;;;8.40;90.70;;;;;;5105987;28;20608;-78
2021/03/02 00:40:19;;;;;;;42.05;19.30;;;8.30;90.80;;;;;;5104275;28;22109;-78
2021/03/02 00:42:47;;;;;;;43.50;20.00;;;8.30;90.90;;;;;;5103956;28;20707;-79
2021/03/02 00:45:14;;;;;;;43.42;20.05;;;8.30;91.00;;;;;;5102872;28;20251;-79
2021/03/02 00:47:40;;;;;;;47.50;20.23;;;8.30;91.00;;;;;;5101814;28;20197;-79
2021/03/02 00:50:08;;;;;;;39.78;19.17;;;8.20;91.10;;;;;;5106085;28;20185;-79
2021/03/02 00:52:35;;;;;;;41.63;18.75;;;8.20;91.20;;;;;;5100504;28;20581;-78
2021/03/02 00:55:04;;;;;;;45.75;24.60;;;8.20;91.30;;;;;;5104453;28;20416;-78
2021/03/02 00:57:31;;;;;;;48.15;24.38;;;8.50;92.30;;;;;;5103340;28;20470;-78
2021/03/02 00:59:58;;;;;;;44.43;24.37;;;8.80;91.90;;;;;;5102732;28;20429;-78
2021/03/02 01:02:25;;;;;;;45.45;24.63;;;9.00;91.60;;;;;;5116417;28;20438;-79
2021/03/02 01:04:52;;;;;;;44.90;24.37;;;9.10;91.20;;;;;;5102994;28;20430;-78
2021/03/02 01:07:19;;;;;;;45.47;24.52;;;9.20;91.00;;;;;;5101672;28;20438;-79
2021/03/02 01:09:46;;;;;;;45.20;24.05;;;9.30;90.90;;;;;;5103357;28;20795;-78
2021/03/02 01:12:13;;;;;;;46.03;23.88;;;9.40;90.80;;;;;;5097474;28;20781;-78
2021/03/02 01:14:43;;;;;;;46.83;24.15;;;9.40;90.60;;;;;;5104517;28;20837;-78
2021/03/02 01:17:11;;;;;;;42.13;23.75;;;9.50;90.50;;;;;;5103025;28;20436;-78
2021/03/02 01:19:37;;;;;;;46.53;24.48;;;9.50;90.40;;;;;;5100647;28;20452;-78
2021/03/02 01:22:04;;;;;;;44.60;24.45;;;9.50;90.30;;;;;;5103042;28;20757;-79
2021/03/02 01:24:30;;;;;;;46.83;25.00;;;9.50;90.30;;;;;;5105629;28;20423;-78
2021/03/02 01:26:56;;;;;;;46.30;25.30;;;9.50;90.30;;;;;;5102256;28;20412;-78
2021/03/02 01:29:22;;;;;;;46.90;25.45;;;9.50;90.30;;;;;;5109838;28;20529;-79
2021/03/02 01:31:49;;;;;;;44.50;24.80;;;9.40;90.30;;;;;;5106126;28;20427;-78
2021/03/02 01:34:16;;;;;;;47.13;25.20;;;9.40;90.40;;;;;;5109683;28;20762;-78
2021/03/02 01:36:42;;;;;;;47.80;24.97;;;9.40;90.40;;;;;;5106542;28;20418;-78
2021/03/02 01:39:09;;;;;;;45.27;25.17;;;9.40;90.40;;;;;;5107600;28;20822;-79
2021/03/02 01:41:35;;;;;;;46.07;25.43;;;9.40;90.40;;;;;;5103537;28;20424;-78
2021/03/02 01:44:01;;;;;;;46.03;25.30;;;9.40;90.40;;;;;;5106098;28;20924;-78
2021/03/02 01:46:27;;;;;;;49.03;25.23;;;9.40;90.70;;;;;;5106033;28;20759;-78
2021/03/02 01:48:55;;;;;;;44.33;24.88;;;9.40;90.30;;;;;;5109283;28;20424;-79
2021/03/02 01:51:22;;;;;;;46.50;25.75;;;9.40;90.30;;;;;;5104753;28;20422;-79
2021/03/02 01:53:48;;;;;;;45.40;25.15;;;9.40;90.20;;;;;;5107985;28;20485;-77
2021/03/02 01:56:15;;;;;;;45.78;25.33;;;9.40;90.20;;;;;;5108715;28;20427;-78
2021/03/02 01:58:41;;;;;;;47.07;25.97;;;9.40;90.20;;;;;;5108661;28;20420;-78
2021/03/02 02:01:09;;;;;;;47.43;25.63;;;9.40;90.20;;;;;;5107568;28;20429;-79
2021/03/02 02:03:44;;;;;;;49.23;25.63;;;9.30;90.20;;;;;;5105297;28;20440;-78
2021/03/02 02:06:16;;;;;;;48.60;25.65;;;9.30;90.20;;;;;;5106236;28;20442;-79
2021/03/02 02:08:52;;;;;;;49.05;25.65;;;9.30;90.30;;;;;;5107808;28;20423;-78
2021/03/02 02:11:29;;;;;;;46.90;26.40;;;9.30;90.30;;;;;;5106859;27;20449;-77
2021/03/02 02:14:01;;;;;;;49.08;26.48;;;9.20;90.40;;;;;;5106983;28;20420;-78
2021/03/02 02:16:29;;;;;;;51.65;27.35;;;9.30;90.40;;;;;;5104416;28;20408;-78
2021/03/02 02:18:56;;;;;;;52.03;28.55;;;9.20;90.40;;;;;;5107058;27;20431;-77
2021/03/02 02:21:29;;;;;;;50.70;28.67;;;9.20;90.40;;;;;;5105595;28;20420;-78
2021/03/02 02:24:11;;;;;;;55.80;30.38;;;9.20;90.30;;;;;;5107090;28;20428;-78
2021/03/02 02:26:51;;;;;;;52.28;29.30;;;9.10;90.30;;;;;;5105752;28;20427;-77
2021/03/02 02:29:21;;;;;;;52.35;30.08;;;9.10;90.40;;;;;;5107517;27;20421;-79
2021/03/02 02:31:50;;;;;;;53.28;30.65;;;9.00;90.50;;;;;;5104276;28;20420;-78
2021/03/02 02:34:19;;;;;;;56.17;30.70;;;9.00;90.60;;;;;;5107587;28;20439;-79
2021/03/02 02:36:47;;;;;;;54.80;30.75;;;9.00;90.70;;;;;;5102421;28;20851;-78
2021/03/02 02:39:15;;;;;;;56.38;31.08;;;9.00;90.70;;;;;;5105269;28;20428;-78
2021/03/02 02:41:43;;;;;;;51.10;29.33;;;9.00;90.80;;;;;;5103892;28;20416;-78
2021/03/02 02:44:11;;;;;;;51.93;29.17;;;8.90;90.80;;;;;;5105231;28;20432;-77
2021/03/02 02:46:38;;;;;;;54.53;29.50;;;8.90;90.80;;;;;;5101957;28;20434;-77
2021/03/02 02:49:04;;;;;;;55.38;29.60;;;8.90;90.90;;;;;;5105572;28;20892;-78
2021/03/02 02:51:32;;;;;;;55.38;29.55;;;8.90;90.90;;;;;;5105644;27;20923;-78
2021/03/02 02:53:59;;;;;;;56.00;30.63;;;8.90;90.90;;;;;;5104518;28;20408;-79
2021/03/02 02:56:30;;;;;;;55.08;29.58;;;8.80;91.00;;;;;;5105929;28;20759;-79
2021/03/02 02:59:03;;;;;;;56.92;30.58;;;8.80;91.00;;;;;;5104960;28;20418;-78
2021/03/02 03:01:37;;;;;;;57.50;30.08;;;8.80;91.10;;;;;;5102744;28;20420;-76
2021/03/02 03:04:08;;;;;;;55.17;30.02;;;8.70;91.20;;;;;;5104186;28;20493;-79
2021/03/02 03:06:40;;;;;;;56.45;30.25;;;8.70;91.30;;;;;;5106302;28;20968;-78
2021/03/02 03:09:07;;;;;;;58.83;31.48;;;8.70;91.30;;;;;;5102646;28;20422;-77
2021/03/02 03:11:37;;;;;;;58.03;31.67;;;8.70;91.30;;;;;;5105765;27;20916;-78
2021/03/02 03:14:06;;;;;;;61.15;32.13;;;8.70;91.30;;;;;;5103015;28;21087;-78
2021/03/02 03:16:35;;;;;;;61.08;31.35;;;8.60;91.30;;;;;;5103645;28;20427;-77
2021/03/02 03:19:03;;;;;;;61.17;32.33;;;8.60;91.30;;;;;;5103058;28;20408;-77
2021/03/02 03:21:29;;;;;;;61.42;32.13;;;8.60;91.30;;;;;;5104960;28;20426;-78
2021/03/02 03:23:57;;;;;;;59.42;32.50;;;8.60;91.40;;;;;;5102608;28;20477;-78
2021/03/02 03:26:26;;;;;;;58.13;32.50;;;8.60;91.50;;;;;;5103118;28;20417;-79
2021/03/02 03:28:55;;;;;;;60.37;32.67;;;8.60;91.50;;;;;;5118782;27;20427;-78
2021/03/02 03:31:22;;;;;;;59.00;32.38;;;8.50;91.40;;;;;;5100945;27;20436;-78
2021/03/02 03:33:51;;;;;;;62.43;32.60;;;8.60;91.40;;;;;;5101233;28;20419;-79
2021/03/02 03:36:18;;;;;;;62.30;32.92;;;8.60;91.40;;;;;;5102690;28;20931;-77
2021/03/02 03:38:44;;;;;;;61.17;32.88;;;8.50;91.40;;;;;;5105696;28;21337;-78
2021/03/02 03:41:11;;;;;;;61.33;32.40;;;8.50;91.40;;;;;;5106200;28;20431;-78
2021/03/02 03:43:38;;;;;;;61.90;33.05;;;8.50;91.40;;;;;;5104738;28;20763;-76
2021/03/02 03:46:04;;;;;;;61.47;33.63;;;8.50;91.40;;;;;;5105850;28;20466;-77
2021/03/02 03:48:30;;;;;;;60.00;33.07;;;8.40;91.50;;;;;;5103560;28;20434;-76
2021/03/02 03:50:58;;;;;;;61.67;33.13;;;8.40;91.60;;;;;;5105865;28;20417;-78
2021/03/02 03:53:28;;;;;;;65.53;34.40;;;8.40;91.70;;;;;;5101403;28;20472;-75
2021/03/02 03:55:55;;;;;;;64.65;34.00;;;8.40;91.70;;;;;;5100337;28;20485;-76
2021/03/02 03:58:23;;;;;;;65.82;33.97;;;8.30;91.70;;;;;;5103640;28;21205;-76
2021/03/02 04:00:50;;;;;;;67.03;34.70;;;8.30;91.90;;;;;;5103886;28;20447;-77
2021/03/02 04:03:18;;;;;;;63.97;34.75;;;8.30;92.00;;;;;;5103445;28;21743;-76
2021/03/02 04:05:46;;;;;;;64.22;34.53;;;8.20;92.10;;;;;;5102665;28;20446;-76
2021/03/02 04:08:14;;;;;;;67.13;34.20;;;8.20;92.20;;;;;;5104531;28;21315;-77
2021/03/02 04:10:41;;;;;;;65.07;34.27;;;8.20;92.20;;;;;;5101270;28;20437;-76
2021/03/02 04:13:12;;;;;;;67.22;34.90;;;8.20;92.30;;;;;;5105817;28;20411;-76
2021/03/02 04:15:38;;;;;;;67.05;34.05;;;8.10;92.40;;;;;;5102600;28;20431;-75
2021/03/02 04:18:10;;;;;;;66.60;34.78;;;8.20;92.40;;;;;;5104483;28;20423;-77
2021/03/02 04:20:37;;;;;;;66.47;34.80;;;8.20;92.40;;;;;;5102931;28;20435;-77
2021/03/02 04:23:03;;;;;;;69.00;34.77;;;8.20;92.50;;;;;;5106417;28;20446;-77
2021/03/02 04:25:32;;;;;;;65.88;34.17;;;8.20;92.40;;;;;;5103107;28;20424;-76
2021/03/02 04:28:00;;;;;;;66.32;35.88;;;8.10;92.50;;;;;;5101387;28;20423;-77
2021/03/02 04:30:26;;;;;;;68.32;35.60;;;8.10;92.50;;;;;;5103065;28;20420;-76
2021/03/02 04:32:53;;;;;;;68.77;36.13;;;8.10;92.60;;;;;;5105412;28;20422;-77
2021/03/02 04:35:20;;;;;;;67.40;35.83;;;8.10;92.70;;;;;;5101516;28;20902;-76
2021/03/02 04:37:46;;;;;;;68.10;36.47;;;8.10;92.70;;;;;;5102495;28;21233;-77
2021/03/02 04:40:14;;;;;;;67.90;36.92;;;8.00;92.70;;;;;;5104607;28;20870;-77
2021/03/02 04:42:41;;;;;;;69.82;37.85;;;8.00;92.70;;;;;;5101219;28;20424;-77
2021/03/02 04:45:09;;;;;;;68.15;37.75;;;8.00;92.80;;;;;;5105111;28;20424;-77
2021/03/02 04:47:36;;;;;;;70.85;38.50;;;8.00;92.80;;;;;;5103630;28;20820;-77
2021/03/02 04:50:03;;;;;;;73.55;38.25;;;8.00;92.90;;;;;;5102711;28;20434;-76
2021/03/02 04:52:29;;;;;;;70.22;37.10;;;8.00;93.00;;;;;;5101732;28;20430;-76
2021/03/02 04:54:55;;;;;;;72.70;37.90;;;7.90;93.00;;;;;;5106485;28;20431;-77
2021/03/02 04:57:22;;;;;;;72.57;37.67;;;8.00;93.00;;;;;;5102747;28;20441;-76
2021/03/02 04:59:49;;;;;;;74.07;37.17;;;7.90;93.00;;;;;;5106122;28;20424;-78
2021/03/02 05:02:16;;;;;;;71.45;36.47;;;7.90;93.00;;;;;;5100914;28;20425;-77
2021/03/02 05:04:42;;;;;;;68.45;36.20;;;7.90;93.00;;;;;;5108600;28;20967;-77
2021/03/02 05:07:08;;;;;;;69.53;35.38;;;7.90;93.00;;;;;;5107664;28;20425;-77
2021/03/02 05:09:35;;;;;;;69.43;35.60;;;7.90;93.00;;;;;;5108325;28;20492;-77
2021/03/02 05:12:01;;;;;;;69.65;35.00;;;7.90;93.00;;;;;;5107225;28;20449;-76
2021/03/02 05:14:28;;;;;;;67.88;34.25;;;7.80;93.00;;;;;;5107720;28;20434;-77
2021/03/02 05:16:55;;;;;;;71.05;35.45;;;7.80;93.00;;;;;;5107856;28;20518;-76
2021/03/02 05:19:21;;;;;;;68.38;35.75;;;7.80;93.10;;;;;;5107367;28;20428;-77
2021/03/02 05:21:47;;;;;;;70.17;34.77;;;7.80;93.20;;;;;;5107701;28;20423;-77
2021/03/02 05:24:14;;;;;;;69.00;35.13;;;7.80;93.20;;;;;;5108545;28;20426;-77
2021/03/02 05:26:40;;;;;;;68.95;35.05;;;7.70;93.20;;;;;;5107263;27;20504;-78
2021/03/02 05:29:07;;;;;;;67.57;34.63;;;7.70;93.30;;;;;;5107401;27;20420;-77
2021/03/02 05:31:35;;;;;;;66.78;34.40;;;7.70;93.40;;;;;;5103104;28;20438;-77
2021/03/02 05:34:03;;;;;;;65.20;33.92;;;7.70;93.50;;;;;;5106988;28;20422;-78
2021/03/02 05:36:29;;;;;;;65.43;33.47;;;7.70;93.50;;;;;;5105733;28;20493;-76
2021/03/02 05:38:55;;;;;;;65.40;34.58;;;7.70;93.40;;;;;;5104448;28;21167;-77
2021/03/02 05:41:23;;;;;;;66.35;34.08;;;7.60;93.40;;;;;;5107390;28;20782;-76
2021/03/02 05:43:51;;;;;;;66.75;33.45;;;7.60;93.50;;;;;;5104487;28;20429;-77
2021/03/02 05:46:22;;;;;;;66.47;33.58;;;7.60;93.50;;;;;;5107168;28;20420;-77
2021/03/02 05:48:49;;;;;;;64.90;33.73;;;7.60;93.40;;;;;;5100876;27;20923;-77
2021/03/02 05:51:17;;;;;;;65.03;33.13;;;7.60;93.30;;;;;;5108695;28;20473;-77
2021/03/02 05:53:44;;;;;;;66.82;34.38;;;7.60;93.40;;;;;;5104537;28;20431;-77
2021/03/02 05:56:11;;;;;;;67.35;34.33;;;7.60;93.40;;;;;;5109063;27;20433;-77
2021/03/02 05:58:38;;;;;;;67.97;33.45;;;7.60;93.40;;;;;;5105848;27;20465;-77
2021/03/02 06:01:05;;;;;;;67.82;34.70;;;7.60;93.50;;;;;;5103609;27;20574;-75
2021/03/02 06:03:34;;;;;;;65.35;33.85;;;7.60;93.50;;;;;;5105447;28;20424;-78
2021/03/02 06:06:01;;;;;;;67.73;34.80;;;7.60;93.50;;;;;;5105815;27;20492;-76
2021/03/02 06:08:28;;;;;;;70.43;35.85;;;7.60;93.50;;;;;;5106450;28;20477;-77
2021/03/02 06:10:54;;;;;;;72.28;34.78;;;7.60;93.50;;;;;;5105936;28;20752;-79
2021/03/02 06:13:25;;;;;;;70.70;34.15;;;7.60;93.50;;;;;;5106439;28;20800;-75
2021/03/02 06:15:56;;;;;;;68.85;34.13;;;7.50;93.50;;;;;;5107477;28;20423;-75
2021/03/02 06:18:23;;;;;;;73.38;34.38;;;7.50;93.60;;;;;;5109414;28;20528;-76
2021/03/02 06:20:51;;;;;;;72.43;35.47;;;7.50;93.70;;;;;;5110719;28;20430;-75
2021/03/02 06:23:23;;;;;;;69.53;34.78;;;7.40;93.70;;;;;;5110411;28;20407;-75
2021/03/02 06:25:52;;;;;;;70.75;35.75;;;7.40;93.70;;;;;;5108682;27;20777;-75
2021/03/02 06:28:38;;;;;;;72.03;34.83;;;7.40;93.80;;;;;;5110582;28;20815;-76
2021/03/02 06:31:05;;;;;;;69.82;34.90;;;7.40;93.80;;;;;;5110128;28;20446;-75
2021/03/02 06:33:31;;;;;;;68.88;34.70;;;7.40;93.80;;;;;;5108817;28;20423;-76
2021/03/02 06:35:58;;;;;;;73.68;36.22;;;7.40;93.80;;;;;;5109565;28;20416;-75
2021/03/02 06:38:30;;;;;;;73.10;35.70;;;7.40;93.90;;;;;;5111472;27;21592;-78
2021/03/02 06:40:58;;;;;;;76.75;37.00;;;7.40;93.90;;;;;;5108285;28;20423;-75
2021/03/02 06:43:32;;;;;;;70.90;35.70;;;7.40;94.00;;;;;;5110603;28;20416;-76
2021/03/02 06:46:00;;;;;;;69.45;34.83;;;7.30;94.00;;;;;;5107956;28;20427;-78
2021/03/02 06:48:26;;;;;;;67.78;34.65;;;7.30;94.00;;;;;;5109412;28;20411;-77
2021/03/02 06:50:53;;;;;;;69.75;34.08;;;7.30;94.00;;;;;;5109141;28;20804;-78
2021/03/02 06:53:19;;;;;;;73.95;35.65;;;7.30;94.00;;;;;;5110357;28;20400;-78
2021/03/02 06:55:46;;;;;;;70.78;34.15;;;7.30;94.00;;;;;;5107725;28;20424;-79
2021/03/02 06:58:21;;;;;;;72.78;35.60;;;7.30;94.10;;;;;;5109959;28;20431;-77
2021/03/02 07:00:49;;;;;;;72.93;34.83;;;7.30;94.10;;;;;;5109081;27;20424;-76
2021/03/02 07:03:37;;;;;;;69.18;34.53;;;7.30;94.20;;;;;;5110602;28;20889;-77
2021/03/02 07:06:04;;;;;;;72.05;35.90;;;7.20;94.20;;;;;;5110438;27;20900;-78
2021/03/02 07:08:31;;;;;;;73.80;36.08;;;7.20;94.20;;;;;;5107716;28;20940;-79
2021/03/02 07:10:59;;;;;;;73.25;35.78;;;7.20;94.30;;;;;;5110754;28;20483;-76
2021/03/02 07:13:30;;;;;;;70.68;35.78;;;7.20;94.30;;;;;;5109450;28;20529;-77
2021/03/02 07:15:58;;;;;;;76.10;36.90;;;7.30;94.30;;;;;;5110004;27;20419;-77
2021/03/02 07:18:28;;;;;;;94.65;42.28;;;7.20;94.30;;;;;;5110033;28;20853;-77
2021/03/02 07:21:00;;;;;;;101.57;44.85;;;7.20;94.70;;;;;;5110154;28;21214;-76
2021/03/02 07:23:28;;;;;;;112.80;45.25;;;7.20;94.40;;;;;;5109079;28;20431;-77
2021/03/02 07:25:56;;;;;;;106.72;44.72;;;7.20;94.60;;;;;;5108237;27;20444;-76
2021/03/02 07:28:28;;;;;;;117.32;47.10;;;7.20;94.70;;;;;;5110507;28;20408;-77
2021/03/02 07:30:54;;;;;;;116.72;46.33;;;7.20;94.70;;;;;;5109774;28;20407;-77
2021/03/02 07:33:21;;;;;;;114.90;48.00;;;7.20;94.90;;;;;;5107624;28;20424;-77
2021/03/02 07:35:48;;;;;;;125.63;47.58;;;7.30;94.90;;;;;;5108500;28;20408;-78
2021/03/02 07:38:16;;;;;;;113.80;48.10;;;7.30;94.90;;;;;;5109581;28;20465;-77
2021/03/02 07:40:44;;;;;;;120.57;49.58;;;7.30;94.90;;;;;;5109310;28;20447;-76
2021/03/02 07:43:23;;;;;;;115.15;48.97;;;7.30;95.00;;;;;;5109254;28;20930;-78
2021/03/02 07:45:50;;;;;;;120.95;49.80;;;7.30;95.00;;;;;;5106564;28;20465;-77
2021/03/02 07:48:28;;;;;;;124.70;52.22;;;7.30;95.20;;;;;;5108609;28;20408;-76
2021/03/02 07:51:20;;;;;;;127.23;52.57;;;7.40;95.10;;;;;;5109114;28;20400;-74
2021/03/02 07:53:48;;;;;;;131.50;54.70;;;7.40;95.20;;;;;;5107175;28;20421;-75
2021/03/02 07:56:25;;;;;;;138.70;57.72;;;7.40;95.20;;;;;;5108489;28;20431;-75
2021/03/02 07:59:19;;;;;;;134.98;57.13;;;7.40;95.30;;;;;;5107620;28;20408;-76
2021/03/02 08:02:14;;;;;;;132.10;58.20;;;7.50;95.30;;;;;;5107759;27;20427;-76
2021/03/02 08:04:41;;;;;;;127.10;57.25;;;7.50;95.30;;;;;;5109682;28;20430;-74
2021/03/02 08:07:25;;;;;;;129.20;57.43;;;7.60;95.30;;;;;;5109855;27;20411;-75
2021/03/02 08:09:53;;;;;;;118.18;56.20;;;7.60;95.50;;;;;;5108917;28;20439;-74
2021/03/02 08:12:47;;;;;;;117.88;55.67;;;7.60;95.50;;;;;;5107090;28;20412;-77
2021/03/02 08:15:39;;;;;;;115.57;53.08;;;7.70;95.70;;;;;;5104896;28;20420;-76
2021/03/02 08:18:28;;;;;;;97.38;51.00;;;7.70;96.20;;;;;;5101985;28;20419;-75
2021/03/02 08:21:06;;;;;;;106.70;51.92;;;7.70;95.90;;;;;;5095435;28;20445;-75
2021/03/02 08:23:50;;;;;;;102.68;51.10;;;7.80;95.90;;;;;;5105062;28;20431;-74
2021/03/02 08:26:25;;;;;;;95.07;47.60;;;7.90;96.00;;;;;;5102313;28;20434;-75
2021/03/02 08:29:06;;;;;;;92.65;46.55;;;7.90;96.00;;;;;;5105658;28;20884;-74
2021/03/02 08:31:32;;;;;;;83.03;45.20;;;8.00;96.00;;;;;;5101893;28;20488;-76
2021/03/02 08:34:00;;;;;;;77.93;42.00;;;8.00;96.00;;;;;;5104257;28;20419;-75
2021/03/02 08:36:27;;;;;;;74.65;41.25;;;8.10;96.10;;;;;;5099427;28;20902;-75
2021/03/02 08:38:54;;;;;;;71.05;37.55;;;8.20;96.10;;;;;;5100848;28;20420;-75
2021/03/02 08:41:31;;;;;;;59.93;33.87;;;8.20;95.90;;;;;;5099170;28;20911;-74
2021/03/02 08:43:58;;;;;;;57.63;32.78;;;8.20;95.60;;;;;;5102332;28;20454;-75
2021/03/02 08:46:26;;;;;;;56.78;32.03;;;8.30;95.40;;;;;;5099409;28;20446;-74
2021/03/02 08:48:54;;;;;;;56.20;31.17;;;8.30;95.30;;;;;;5103163;28;20416;-75
2021/03/02 08:51:22;;;;;;;56.08;30.52;;;8.40;95.30;;;;;;5102419;28;20439;-75
2021/03/02 08:53:49;;;;;;;56.75;31.15;;;8.50;95.10;;;;;;5104779;28;20420;-74
2021/03/02 08:56:21;;;;;;;54.55;30.88;;;8.60;95.00;;;;;;5096639;28;20459;-76
2021/03/02 08:58:49;;;;;;;56.88;31.40;;;8.60;94.80;;;;;;5102511;28;20462;-76
2021/03/02 09:01:24;;;;;;;57.13;33.50;;;8.70;94.90;;;;;;5103440;28;20420;-75
2021/03/02 09:03:52;;;;;;;62.47;34.83;;;8.80;94.70;;;;;;5103296;28;20842;-76
2021/03/02 09:06:21;;;;;;;62.23;35.40;;;8.90;94.80;;;;;;5103847;28;20427;-77
2021/03/02 09:08:54;;;;;;;54.05;31.17;;;9.00;94.80;;;;;;5102599;28;20923;-76
2021/03/02 09:11:24;;;;;;;57.45;31.55;;;9.00;94.50;;;;;;5101905;28;20424;-75
2021/03/02 09:13:51;;;;;;;56.08;31.77;;;9.10;94.10;;;;;;5107361;28;20412;-76
2021/03/02 09:16:35;;;;;;;60.67;32.55;;;9.20;94.20;;;;;;5105307;28;20418;-76
2021/03/02 09:19:11;;;;;;;59.97;33.15;;;9.30;94.20;;;;;;5108416;28;20416;-75
2021/03/02 09:21:40;;;;;;;64.28;33.25;;;9.30;94.10;;;;;;5108247;28;20900;-76
2021/03/02 09:24:08;;;;;;;60.17;33.35;;;9.40;94.20;;;;;;5097157;28;20477;-76
2021/03/02 09:26:35;;;;;;;59.75;32.83;;;9.50;94.00;;;;;;5108397;28;20431;-76
2021/03/02 09:29:03;;;;;;;54.20;31.77;;;9.60;93.50;;;;;;5095619;28;20776;-76
2021/03/02 09:31:31;;;;;;;55.13;31.95;;;9.60;93.40;;;;;;5100593;28;20502;-76
2021/03/02 09:33:59;;;;;;;55.83;31.75;;;9.70;93.20;;;;;;5099252;28;20484;-75
2021/03/02 09:36:26;;;;;;;55.90;32.30;;;9.70;93.10;;;;;;5099013;28;20430;-76
2021/03/02 09:38:55;;;;;;;58.35;32.70;;;9.80;92.90;;;;;;5099464;28;20424;-75
2021/03/02 09:41:33;;;;;;;54.25;31.50;;;9.90;92.80;;;;;;5098849;28;20465;-74
2021/03/02 09:44:22;;;;;;;58.05;30.92;;;9.90;92.50;;;;;;5097911;28;20428;-73
2021/03/02 09:46:50;;;;;;;57.58;31.25;;;10.00;92.40;;;;;;5098513;28;20818;-75
2021/03/02 09:49:34;;;;;;;53.22;30.45;;;10.10;92.20;;;;;;5098902;28;20817;-74
2021/03/02 09:52:00;;;;;;;49.42;29.00;;;10.20;92.00;;;;;;5099455;28;20508;-74
2021/03/02 09:54:28;;;;;;;51.00;28.30;;;10.30;91.80;;;;;;5102806;28;20424;-73
2021/03/02 09:56:58;;;;;;;50.15;27.40;;;10.40;91.60;;;;;;5102597;28;20428;-74
2021/03/02 09:59:25;;;;;;;42.95;26.15;;;10.40;91.50;;;;;;5102691;28;20419;-74
2021/03/02 10:01:52;;;;;;;45.92;25.77;;;10.50;91.30;;;;;;5106909;28;20453;-74
2021/03/02 10:04:19;;;;;;;45.85;26.05;;;10.60;91.10;;;;;;5103726;28;20420;-73
2021/03/02 10:06:45;;;;;;;45.77;26.23;;;10.60;90.80;;;;;;5102519;28;20428;-72
2021/03/02 10:09:22;;;;;;;41.95;25.42;;;10.70;90.50;;;;;;5101979;28;20427;-72
2021/03/02 10:12:08;;;;;;;44.28;25.30;;;10.80;90.20;;;;;;5105863;27;20859;-73
2021/03/02 10:14:39;;;;;;;46.90;24.75;;;10.90;90.00;;;;;;5104009;28;20783;-73
2021/03/02 10:17:06;;;;;;;41.35;24.58;;;11.00;90.00;;;;;;5107063;28;20453;-74
2021/03/02 10:19:34;;;;;;;41.07;24.40;;;11.00;90.00;;;;;;5106634;28;20419;-73
2021/03/02 10:22:01;;;;;;;45.40;25.13;;;11.10;89.60;;;;;;5106088;28;20459;-74
2021/03/02 10:24:30;;;;;;;41.20;24.85;;;11.20;89.30;;;;;;5106594;28;20435;-75
2021/03/02 10:26:59;;;;;;;39.13;23.92;;;11.30;88.80;;;;;;5101784;27;20463;-73
2021/03/02 10:29:26;;;;;;;36.87;22.70;;;11.40;88.20;;;;;;5103589;28;20487;-75
2021/03/02 10:31:53;;;;;;;34.72;21.40;;;11.50;88.10;;;;;;5103361;28;20431;-73
2021/03/02 10:34:20;;;;;;;37.90;22.75;;;11.50;86.90;;;;;;5106670;28;20428;-74
2021/03/02 10:36:53;;;;;;;37.83;22.67;;;11.60;86.60;;;;;;5103242;28;20427;-74
2021/03/02 10:39:19;;;;;;;38.67;22.15;;;11.70;86.60;;;;;;5103685;28;20830;-75
2021/03/02 10:41:46;;;;;;;33.10;21.13;;;11.80;86.00;;;;;;5102733;28;20991;-75
2021/03/02 10:44:15;;;;;;;35.40;21.55;;;11.80;85.60;;;;;;5106898;28;20431;-73
2021/03/02 10:46:42;;;;;;;35.25;22.02;;;11.90;84.90;;;;;;5107055;28;20437;-74
2021/03/02 10:49:08;;;;;;;38.28;22.80;;;12.00;84.60;;;;;;5121149;27;20911;-75
2021/03/02 10:51:34;;;;;;;37.33;21.13;;;12.10;84.50;;;;;;5104448;28;20435;-76
2021/03/02 10:54:01;;;;;;;39.58;22.08;;;12.20;84.20;;;;;;5107375;28;20427;-74
2021/03/02 10:56:28;;;;;;;34.80;21.65;;;12.30;84.20;;;;;;5107192;28;20439;-73
2021/03/02 10:58:54;;;;;;;32.08;20.50;;;12.40;84.00;;;;;;5106279;28;20436;-74
2021/03/02 11:01:22;;;;;;;34.22;20.90;;;12.50;83.70;;;;;;5106744;28;20432;-74
2021/03/02 11:03:49;;;;;;;32.07;20.40;;;12.50;83.50;;;;;;5103705;27;20927;-75
2021/03/02 11:06:16;;;;;;;35.88;20.83;;;12.60;83.00;;;;;;5105407;28;20424;-74
2021/03/02 11:08:44;;;;;;;37.58;21.42;;;12.70;82.70;;;;;;5104806;27;20428;-73
2021/03/02 11:11:11;;;;;;;33.65;20.80;;;12.80;82.10;;;;;;5105709;28;20415;-75
2021/03/02 11:13:37;;;;;;;34.25;20.02;;;13.00;81.80;;;;;;5103719;28;20431;-75
2021/03/02 11:16:04;;;;;;;30.50;18.83;;;13.00;81.00;;;;;;5105459;28;20433;-73
2021/03/02 11:18:31;;;;;;;32.00;19.48;;;13.10;80.50;;;;;;5102647;28;20438;-74
2021/03/02 11:20:58;;;;;;;31.77;20.00;;;13.20;80.40;;;;;;5105881;28;20814;-75
2021/03/02 11:23:24;;;;;;;32.47;18.85;;;13.30;79.90;;;;;;5102364;28;20493;-74
2021/03/02 11:25:51;;;;;;;30.85;17.85;;;13.40;79.60;;;;;;5103635;28;20953;-75
2021/03/02 11:28:17;;;;;;;29.10;17.93;;;13.50;78.50;;;;;;5102958;28;20427;-73
2021/03/02 11:30:44;;;;;;;26.48;17.58;;;13.60;77.90;;;;;;5101925;28;20422;-74
2021/03/02 11:33:11;;;;;;;27.50;17.75;;;13.70;77.50;;;;;;5103747;28;20419;-74
2021/03/02 11:35:39;;;;;;;30.55;17.98;;;13.80;77.20;;;;;;5104459;28;20437;-74
2021/03/02 11:38:06;;;;;;;30.20;17.63;;;13.90;76.20;;;;;;5106017;28;20794;-76
2021/03/02 11:40:33;;;;;;;28.42;17.15;;;14.00;76.60;;;;;;5104417;28;20442;-75
2021/03/02 11:43:00;;;;;;;28.00;18.20;;;14.10;76.10;;;;;;5104084;28;20819;-75
2021/03/02 11:45:28;;;;;;;30.17;17.98;;;14.20;75.40;;;;;;5105665;28;20420;-74
2021/03/02 11:48:36;;;;;;;29.63;18.35;;;14.20;74.00;;;;;;5102094;28;20435;-75
2021/03/02 11:51:03;;;;;;;30.13;18.40;;;14.40;73.90;;;;;;5105005;28;20434;-76
2021/03/02 11:53:30;;;;;;;30.40;18.48;;;14.50;73.20;;;;;;5104469;28;20428;-76
2021/03/02 11:55:56;;;;;;;31.35;19.73;;;14.60;73.00;;;;;;5105346;28;20886;-74
2021/03/02 11:58:23;;;;;;;30.90;19.52;;;14.70;73.20;;;;;;5103848;28;20427;-73
2021/03/02 12:00:49;;;;;;;30.08;19.45;;;14.80;72.80;;;;;;5099100;28;20524;-74
2021/03/02 12:03:16;;;;;;;33.23;20.13;;;14.90;72.50;;;;;;5102957;28;20422;-75
2021/03/02 12:05:42;;;;;;;31.10;19.53;;;15.00;72.30;;;;;;5104383;28;20424;-76
2021/03/02 12:08:09;;;;;;;32.07;19.33;;;15.10;72.00;;;;;;5101193;27;20430;-73
2021/03/02 12:10:36;;;;;;;31.58;19.77;;;15.20;70.60;;;;;;5105523;28;20431;-73
2021/03/02 12:13:02;;;;;;;34.17;20.20;;;15.30;70.50;;;;;;5100979;28;20469;-75
2021/03/02 12:15:29;;;;;;;30.70;19.10;;;15.40;70.90;;;;;;5106514;28;20416;-75
2021/03/02 12:17:55;;;;;;;32.22;19.77;;;15.40;70.60;;;;;;5102099;28;20423;-75
2021/03/02 12:20:21;;;;;;;33.28;19.10;;;15.50;68.90;;;;;;5097777;27;20485;-75
2021/03/02 12:22:48;;;;;;;32.25;19.30;;;15.60;68.90;;;;;;5095533;28;20437;-75
2021/03/02 12:25:15;;;;;;;29.35;19.35;;;15.70;69.10;;;;;;5097606;28;20896;-76
2021/03/02 12:27:41;;;;;;;31.27;19.60;;;15.80;68.40;;;;;;5100812;28;20421;-76
2021/03/02 12:30:08;;;;;;;32.13;19.93;;;15.90;67.30;;;;;;5101868;28;20426;-77
2021/03/02 12:32:36;;;;;;;32.93;19.00;;;16.00;67.10;;;;;;5101565;28;20431;-77
2021/03/02 12:35:03;;;;;;;32.58;18.85;;;16.10;66.70;;;;;;5101223;28;20420;-76
2021/03/02 12:37:30;;;;;;;30.83;19.33;;;16.20;66.00;;;;;;5096611;28;20463;-76
2021/03/02 12:39:56;;;;;;;29.02;19.35;;;16.30;65.20;;;;;;5102367;28;20419;-76
2021/03/02 12:42:24;;;;;;;32.13;19.55;;;16.40;65.10;;;;;;5096343;28;20910;-75